sensor_id;sensor_type;location;lat;lon;timestamp;temperature;humidity
62575;DHT22;53112;45.602;11.904;2023-02-27T00:01:32;8.20;42.50
62575;DHT22;53112;45.602;11.904;2023-02-27T00:03:59;8.10;42.50
62575;DHT22;53112;45.602;11.904;2023-02-27T00:06:26;8.10;43.20
62575;DHT22;53112;45.602;11.904;2023-02-27T00:08:52;8.10;42.90
62575;DHT22;53112;45.602;11.904;2023-02-27T00:11:18;8.10;43.10
62575;DHT22;53112;45.602;11.904;2023-02-27T00:13:43;8.10;42.70
62575;DHT22;53112;45.602;11.904;2023-02-27T00:16:09;8.10;43.30
62575;DHT22;53112;45.602;11.904;2023-02-27T00:18:35;8.10;43.10
62575;DHT22;53112;45.602;11.904;2023-02-27T00:21:01;8.30;43.30
62575;DHT22;53112;45.602;11.904;2023-02-27T00:23:27;8.20;43.50
62575;DHT22;53112;45.602;11.904;2023-02-27T00:28:24;8.20;43.60
62575;DHT22;53112;45.602;11.904;2023-02-27T00:30:50;8.20;43.50
62575;DHT22;53112;45.602;11.904;2023-02-27T00:33:16;8.20;43.40
62575;DHT22;53112;45.602;11.904;2023-02-27T00:35:42;8.10;43.40
62575;DHT22;53112;45.602;11.904;2023-02-27T00:38:08;8.10;43.20
62575;DHT22;53112;45.602;11.904;2023-02-27T00:40:34;8.10;43.50
62575;DHT22;53112;45.602;11.904;2023-02-27T00:43:01;8.10;43.90
62575;DHT22;53112;45.602;11.904;2023-02-27T00:45:28;8.10;43.80
62575;DHT22;53112;45.602;11.904;2023-02-27T00:47:54;8.10;43.80
62575;DHT22;53112;45.602;11.904;2023-02-27T00:50:20;8.00;43.30
62575;DHT22;53112;45.602;11.904;2023-02-27T00:52:45;7.90;43.60
62575;DHT22;53112;45.602;11.904;2023-02-27T00:55:11;7.80;43.80
62575;DHT22;53112;45.602;11.904;2023-02-27T00:57:37;7.80;44.30
62575;DHT22;53112;45.602;11.904;2023-02-27T01:00:06;7.80;43.70
62575;DHT22;53112;45.602;11.904;2023-02-27T01:02:33;7.90;44.10
62575;DHT22;53112;45.602;11.904;2023-02-27T01:04:59;7.80;43.40
62575;DHT22;53112;45.602;11.904;2023-02-27T01:07:24;7.90;43.50
62575;DHT22;53112;45.602;11.904;2023-02-27T01:09:50;8.00;43.40
62575;DHT22;53112;45.602;11.904;2023-02-27T01:12:16;7.90;43.10
62575;DHT22;53112;45.602;11.904;2023-02-27T01:14:42;8.10;43.00
62575;DHT22;53112;45.602;11.904;2023-02-27T01:17:09;8.10;43.30
62575;DHT22;53112;45.602;11.904;2023-02-27T01:19:35;8.10;43.20
62575;DHT22;53112;45.602;11.904;2023-02-27T01:22:01;8.00;43.20
62575;DHT22;53112;45.602;11.904;2023-02-27T01:24:26;8.00;43.30
62575;DHT22;53112;45.602;11.904;2023-02-27T01:26:52;8.00;43.50
62575;DHT22;53112;45.602;11.904;2023-02-27T01:29:19;8.00;43.60
62575;DHT22;53112;45.602;11.904;2023-02-27T01:31:45;7.90;43.70
62575;DHT22;53112;45.602;11.904;2023-02-27T01:34:10;8.00;43.40
62575;DHT22;53112;45.602;11.904;2023-02-27T01:36:36;7.90;43.60
62575;DHT22;53112;45.602;11.904;2023-02-27T01:39:02;8.10;43.60
62575;DHT22;53112;45.602;11.904;2023-02-27T01:41:29;8.10;43.30
62575;DHT22;53112;45.602;11.904;2023-02-27T01:44:02;8.10;43.40
62575;DHT22;53112;45.602;11.904;2023-02-27T01:46:29;8.00;43.30
62575;DHT22;53112;45.602;11.904;2023-02-27T01:49:28;8.00;43.00
62575;DHT22;53112;45.602;11.904;2023-02-27T01:52:05;8.10;43.40
62575;DHT22;53112;45.602;11.904;2023-02-27T01:54:39;8.10;43.60
62575;DHT22;53112;45.602;11.904;2023-02-27T01:57:06;8.10;43.40
62575;DHT22;53112;45.602;11.904;2023-02-27T01:59:34;8.00;43.70
62575;DHT22;53112;45.602;11.904;2023-02-27T02:02:07;8.00;43.80
62575;DHT22;53112;45.602;11.904;2023-02-27T02:04:35;8.00;43.80
62575;DHT22;53112;45.602;11.904;2023-02-27T02:07:06;8.00;43.70
62575;DHT22;53112;45.602;11.904;2023-02-27T02:09:36;8.00;44.10
62575;DHT22;53112;45.602;11.904;2023-02-27T02:12:04;8.00;43.70
62575;DHT22;53112;45.602;11.904;2023-02-27T02:14:30;8.10;43.90
62575;DHT22;53112;45.602;11.904;2023-02-27T02:26:14;8.10;44.40
62575;DHT22;53112;45.602;11.904;2023-02-27T02:46:59;7.80;44.70
62575;DHT22;53112;45.602;11.904;2023-02-27T02:50:05;7.90;44.90
62575;DHT22;53112;45.602;11.904;2023-02-27T02:55:25;7.90;44.10
62575;DHT22;53112;45.602;11.904;2023-02-27T02:58:06;7.90;44.80
62575;DHT22;53112;45.602;11.904;2023-02-27T03:01:14;7.90;44.60
62575;DHT22;53112;45.602;11.904;2023-02-27T03:03:40;8.00;44.10
62575;DHT22;53112;45.602;11.904;2023-02-27T03:08:54;8.00;43.80
62575;DHT22;53112;45.602;11.904;2023-02-27T03:11:23;8.00;43.80
62575;DHT22;53112;45.602;11.904;2023-02-27T03:14:08;8.00;43.60
62575;DHT22;53112;45.602;11.904;2023-02-27T03:16:41;7.90;43.60
62575;DHT22;53112;45.602;11.904;2023-02-27T03:19:17;8.00;43.60
62575;DHT22;53112;45.602;11.904;2023-02-27T03:22:09;8.00;43.60
62575;DHT22;53112;45.602;11.904;2023-02-27T03:24:42;7.90;43.40
62575;DHT22;53112;45.602;11.904;2023-02-27T03:27:09;8.00;43.90
62575;DHT22;53112;45.602;11.904;2023-02-27T03:32:55;8.00;43.40
62575;DHT22;53112;45.602;11.904;2023-02-27T03:36:10;8.00;43.10
62575;DHT22;53112;45.602;11.904;2023-02-27T03:38:39;8.00;43.70
62575;DHT22;53112;45.602;11.904;2023-02-27T03:41:30;8.00;43.50
62575;DHT22;53112;45.602;11.904;2023-02-27T03:46:44;7.80;42.80
62575;DHT22;53112;45.602;11.904;2023-02-27T03:49:10;7.90;42.80
62575;DHT22;53112;45.602;11.904;2023-02-27T03:51:36;8.00;43.20
62575;DHT22;53112;45.602;11.904;2023-02-27T03:54:16;8.00;43.00
62575;DHT22;53112;45.602;11.904;2023-02-27T03:56:51;8.00;42.90
62575;DHT22;53112;45.602;11.904;2023-02-27T03:59:22;8.10;43.30
62575;DHT22;53112;45.602;11.904;2023-02-27T04:01:48;8.00;42.70
62575;DHT22;53112;45.602;11.904;2023-02-27T04:04:16;7.90;43.10
62575;DHT22;53112;45.602;11.904;2023-02-27T04:06:51;8.00;43.30
62575;DHT22;53112;45.602;11.904;2023-02-27T04:12:44;8.00;43.20
62575;DHT22;53112;45.602;11.904;2023-02-27T04:21:10;8.10;43.30
62575;DHT22;53112;45.602;11.904;2023-02-27T04:35:50;8.00;42.80
62575;DHT22;53112;45.602;11.904;2023-02-27T04:38:18;8.10;42.90
62575;DHT22;53112;45.602;11.904;2023-02-27T04:43:26;8.10;43.30
62575;DHT22;53112;45.602;11.904;2023-02-27T04:45:55;8.10;42.90
62575;DHT22;53112;45.602;11.904;2023-02-27T04:48:53;8.10;42.70
62575;DHT22;53112;45.602;11.904;2023-02-27T04:51:25;8.20;42.70
62575;DHT22;53112;45.602;11.904;2023-02-27T04:56:33;8.10;42.90
62575;DHT22;53112;45.602;11.904;2023-02-27T04:59:22;8.10;43.20
62575;DHT22;53112;45.602;11.904;2023-02-27T05:04:21;8.10;43.60
62575;DHT22;53112;45.602;11.904;2023-02-27T05:06:53;8.10;43.70
62575;DHT22;53112;45.602;11.904;2023-02-27T05:11:57;8.20;43.30
62575;DHT22;53112;45.602;11.904;2023-02-27T05:14:33;8.20;43.10
62575;DHT22;53112;45.602;11.904;2023-02-27T05:19:31;8.10;43.50
62575;DHT22;53112;45.602;11.904;2023-02-27T05:28:03;8.10;43.60
62575;DHT22;53112;45.602;11.904;2023-02-27T05:33:13;8.20;43.70
62575;DHT22;53112;45.602;11.904;2023-02-27T05:38:24;8.10;43.70
62575;DHT22;53112;45.602;11.904;2023-02-27T05:41:01;8.10;43.80
62575;DHT22;53112;45.602;11.904;2023-02-27T05:43:33;8.20;43.70
62575;DHT22;53112;45.602;11.904;2023-02-27T05:46:04;8.10;43.50
62575;DHT22;53112;45.602;11.904;2023-02-27T05:48:45;8.10;43.60
62575;DHT22;53112;45.602;11.904;2023-02-27T05:51:13;8.10;43.40
62575;DHT22;53112;45.602;11.904;2023-02-27T05:53:47;8.10;43.40
62575;DHT22;53112;45.602;11.904;2023-02-27T05:56:17;8.10;43.40
62575;DHT22;53112;45.602;11.904;2023-02-27T05:59:10;8.10;43.20
62575;DHT22;53112;45.602;11.904;2023-02-27T06:01:39;8.10;43.30
62575;DHT22;53112;45.602;11.904;2023-02-27T06:04:05;8.20;43.10
62575;DHT22;53112;45.602;11.904;2023-02-27T06:06:31;8.20;43.00
62575;DHT22;53112;45.602;11.904;2023-02-27T06:08:59;8.20;42.60
62575;DHT22;53112;45.602;11.904;2023-02-27T06:11:25;8.20;42.70
62575;DHT22;53112;45.602;11.904;2023-02-27T06:13:51;8.20;42.60
62575;DHT22;53112;45.602;11.904;2023-02-27T06:16:17;8.20;43.10
62575;DHT22;53112;45.602;11.904;2023-02-27T06:18:43;8.20;42.90
62575;DHT22;53112;45.602;11.904;2023-02-27T06:21:10;8.30;42.50
62575;DHT22;53112;45.602;11.904;2023-02-27T06:23:36;8.30;42.10
62575;DHT22;53112;45.602;11.904;2023-02-27T06:26:03;8.30;42.10
62575;DHT22;53112;45.602;11.904;2023-02-27T06:28:29;8.30;42.20
62575;DHT22;53112;45.602;11.904;2023-02-27T06:30:55;8.30;42.50
62575;DHT22;53112;45.602;11.904;2023-02-27T06:33:22;8.30;42.20
62575;DHT22;53112;45.602;11.904;2023-02-27T06:35:48;8.40;42.80
62575;DHT22;53112;45.602;11.904;2023-02-27T06:38:15;8.40;42.00
62575;DHT22;53112;45.602;11.904;2023-02-27T06:40:41;8.40;42.50
62575;DHT22;53112;45.602;11.904;2023-02-27T06:43:07;8.40;42.10
62575;DHT22;53112;45.602;11.904;2023-02-27T06:45:34;8.40;42.10
62575;DHT22;53112;45.602;11.904;2023-02-27T06:48:00;8.50;42.90
62575;DHT22;53112;45.602;11.904;2023-02-27T06:50:26;8.50;42.30
62575;DHT22;53112;45.602;11.904;2023-02-27T06:52:53;8.60;42.80
62575;DHT22;53112;45.602;11.904;2023-02-27T06:55:18;8.70;42.00
62575;DHT22;53112;45.602;11.904;2023-02-27T06:57:47;8.70;41.70
62575;DHT22;53112;45.602;11.904;2023-02-27T07:00:14;8.60;40.70
62575;DHT22;53112;45.602;11.904;2023-02-27T07:02:40;8.50;42.20
62575;DHT22;53112;45.602;11.904;2023-02-27T07:05:07;8.70;42.40
62575;DHT22;53112;45.602;11.904;2023-02-27T07:07:34;8.80;41.70
62575;DHT22;53112;45.602;11.904;2023-02-27T07:10:00;8.90;40.90
62575;DHT22;53112;45.602;11.904;2023-02-27T07:12:26;8.90;41.10
62575;DHT22;53112;45.602;11.904;2023-02-27T07:14:52;8.90;41.10
62575;DHT22;53112;45.602;11.904;2023-02-27T07:17:17;8.90;40.10
62575;DHT22;53112;45.602;11.904;2023-02-27T07:19:43;9.00;40.70
62575;DHT22;53112;45.602;11.904;2023-02-27T07:22:10;9.00;40.50
62575;DHT22;53112;45.602;11.904;2023-02-27T07:24:36;9.10;40.00
62575;DHT22;53112;45.602;11.904;2023-02-27T07:27:02;9.00;41.00
62575;DHT22;53112;45.602;11.904;2023-02-27T07:29:28;8.90;40.00
62575;DHT22;53112;45.602;11.904;2023-02-27T07:31:53;9.10;39.80
62575;DHT22;53112;45.602;11.904;2023-02-27T07:34:20;9.10;39.50
62575;DHT22;53112;45.602;11.904;2023-02-27T07:36:46;9.20;39.30
62575;DHT22;53112;45.602;11.904;2023-02-27T07:39:12;9.20;39.10
62575;DHT22;53112;45.602;11.904;2023-02-27T07:41:38;9.10;39.50
62575;DHT22;53112;45.602;11.904;2023-02-27T07:44:05;9.50;39.50
62575;DHT22;53112;45.602;11.904;2023-02-27T07:46:34;9.40;38.10
62575;DHT22;53112;45.602;11.904;2023-02-27T07:49:00;9.40;38.50
62575;DHT22;53112;45.602;11.904;2023-02-27T07:51:26;9.50;38.20
62575;DHT22;53112;45.602;11.904;2023-02-27T07:53:52;9.70;38.80
62575;DHT22;53112;45.602;11.904;2023-02-27T07:56:17;9.80;38.90
62575;DHT22;53112;45.602;11.904;2023-02-27T07:58:43;9.60;38.50
62575;DHT22;53112;45.602;11.904;2023-02-27T08:01:09;9.60;38.20
62575;DHT22;53112;45.602;11.904;2023-02-27T08:03:35;10.00;38.50
62575;DHT22;53112;45.602;11.904;2023-02-27T08:06:01;10.10;37.40
62575;DHT22;53112;45.602;11.904;2023-02-27T08:08:27;10.20;37.80
62575;DHT22;53112;45.602;11.904;2023-02-27T08:10:54;10.20;37.40
62575;DHT22;53112;45.602;11.904;2023-02-27T08:13:20;10.40;37.10
62575;DHT22;53112;45.602;11.904;2023-02-27T08:15:46;10.70;35.80
62575;DHT22;53112;45.602;11.904;2023-02-27T08:18:12;11.00;36.00
62575;DHT22;53112;45.602;11.904;2023-02-27T08:20:38;11.30;35.90
62575;DHT22;53112;45.602;11.904;2023-02-27T08:23:04;11.30;34.60
62575;DHT22;53112;45.602;11.904;2023-02-27T08:25:29;11.30;34.70
62575;DHT22;53112;45.602;11.904;2023-02-27T08:27:55;11.20;34.60
62575;DHT22;53112;45.602;11.904;2023-02-27T08:30:21;11.30;34.10
62575;DHT22;53112;45.602;11.904;2023-02-27T08:32:47;11.20;35.40
62575;DHT22;53112;45.602;11.904;2023-02-27T08:35:13;11.60;34.70
62575;DHT22;53112;45.602;11.904;2023-02-27T08:37:39;11.80;34.50
62575;DHT22;53112;45.602;11.904;2023-02-27T08:40:06;11.70;35.00
62575;DHT22;53112;45.602;11.904;2023-02-27T08:42:33;11.90;33.60
62575;DHT22;53112;45.602;11.904;2023-02-27T08:44:59;12.20;32.70
62575;DHT22;53112;45.602;11.904;2023-02-27T08:47:25;12.50;32.60
62575;DHT22;53112;45.602;11.904;2023-02-27T08:49:51;12.20;33.00
62575;DHT22;53112;45.602;11.904;2023-02-27T08:52:17;12.70;33.00
62575;DHT22;53112;45.602;11.904;2023-02-27T08:54:43;12.70;33.10
62575;DHT22;53112;45.602;11.904;2023-02-27T08:57:09;12.60;32.50
62575;DHT22;53112;45.602;11.904;2023-02-27T08:59:34;12.70;32.50
62575;DHT22;53112;45.602;11.904;2023-02-27T09:02:00;13.10;31.70
62575;DHT22;53112;45.602;11.904;2023-02-27T09:04:26;13.10;32.20
62575;DHT22;53112;45.602;11.904;2023-02-27T09:06:52;13.40;30.50
62575;DHT22;53112;45.602;11.904;2023-02-27T09:09:19;13.80;29.10
62575;DHT22;53112;45.602;11.904;2023-02-27T09:11:49;14.00;29.50
62575;DHT22;53112;45.602;11.904;2023-02-27T09:14:15;13.90;29.70
62575;DHT22;53112;45.602;11.904;2023-02-27T09:16:41;14.00;30.00
62575;DHT22;53112;45.602;11.904;2023-02-27T09:19:07;13.90;29.40
62575;DHT22;53112;45.602;11.904;2023-02-27T09:21:33;14.20;29.60
62575;DHT22;53112;45.602;11.904;2023-02-27T09:23:59;14.50;30.80
62575;DHT22;53112;45.602;11.904;2023-02-27T09:26:25;15.00;29.20
62575;DHT22;53112;45.602;11.904;2023-02-27T09:28:51;14.40;28.60
62575;DHT22;53112;45.602;11.904;2023-02-27T09:31:17;14.50;28.90
62575;DHT22;53112;45.602;11.904;2023-02-27T09:33:43;14.90;28.00
62575;DHT22;53112;45.602;11.904;2023-02-27T09:36:11;15.20;28.20
62575;DHT22;53112;45.602;11.904;2023-02-27T09:38:38;15.00;28.30
62575;DHT22;53112;45.602;11.904;2023-02-27T09:41:05;14.90;28.70
62575;DHT22;53112;45.602;11.904;2023-02-27T09:43:41;15.10;27.40
62575;DHT22;53112;45.602;11.904;2023-02-27T09:46:13;15.00;27.40
62575;DHT22;53112;45.602;11.904;2023-02-27T09:49:00;14.70;27.10
62575;DHT22;53112;45.602;11.904;2023-02-27T09:51:27;16.40;27.60
62575;DHT22;53112;45.602;11.904;2023-02-27T09:53:57;17.00;25.60
62575;DHT22;53112;45.602;11.904;2023-02-27T09:56:45;17.80;24.20
62575;DHT22;53112;45.602;11.904;2023-02-27T10:16:26;16.10;25.50
62575;DHT22;53112;45.602;11.904;2023-02-27T10:18:57;16.40;24.90
62575;DHT22;53112;45.602;11.904;2023-02-27T10:26:36;15.10;25.90
62575;DHT22;53112;45.602;11.904;2023-02-27T10:32:44;15.80;26.50
62575;DHT22;53112;45.602;11.904;2023-02-27T10:35:16;15.70;24.40
62575;DHT22;53112;45.602;11.904;2023-02-27T10:37:49;15.10;25.20
62575;DHT22;53112;45.602;11.904;2023-02-27T10:40:17;15.60;26.40
62575;DHT22;53112;45.602;11.904;2023-02-27T10:42:45;16.10;25.80
62575;DHT22;53112;45.602;11.904;2023-02-27T10:45:15;16.30;24.00
62575;DHT22;53112;45.602;11.904;2023-02-27T10:47:41;16.00;25.70
62575;DHT22;53112;45.602;11.904;2023-02-27T10:50:28;15.90;25.20
62575;DHT22;53112;45.602;11.904;2023-02-27T10:52:57;16.30;25.20
62575;DHT22;53112;45.602;11.904;2023-02-27T10:55:27;17.10;25.00
62575;DHT22;53112;45.602;11.904;2023-02-27T11:00:27;16.90;24.80
62575;DHT22;53112;45.602;11.904;2023-02-27T11:02:55;17.20;24.10
62575;DHT22;53112;45.602;11.904;2023-02-27T11:05:25;17.70;23.90
62575;DHT22;53112;45.602;11.904;2023-02-27T11:07:51;17.90;24.60
62575;DHT22;53112;45.602;11.904;2023-02-27T11:10:21;17.70;24.30
62575;DHT22;53112;45.602;11.904;2023-02-27T11:13:06;18.10;23.00
62575;DHT22;53112;45.602;11.904;2023-02-27T11:15:42;17.90;23.30
62575;DHT22;53112;45.602;11.904;2023-02-27T11:18:23;17.50;23.10
62575;DHT22;53112;45.602;11.904;2023-02-27T11:20:49;17.60;23.80
62575;DHT22;53112;45.602;11.904;2023-02-27T11:23:24;17.40;23.40
62575;DHT22;53112;45.602;11.904;2023-02-27T11:25:50;17.50;23.30
62575;DHT22;53112;45.602;11.904;2023-02-27T11:28:33;17.80;22.00
62575;DHT22;53112;45.602;11.904;2023-02-27T11:31:13;18.40;22.90
62575;DHT22;53112;45.602;11.904;2023-02-27T11:33:49;18.10;24.40
62575;DHT22;53112;45.602;11.904;2023-02-27T11:36:16;18.30;23.00
62575;DHT22;53112;45.602;11.904;2023-02-27T11:38:53;18.30;23.30
62575;DHT22;53112;45.602;11.904;2023-02-27T11:41:20;17.70;22.70
62575;DHT22;53112;45.602;11.904;2023-02-27T11:43:56;17.50;23.30
62575;DHT22;53112;45.602;11.904;2023-02-27T11:46:24;16.90;23.80
62575;DHT22;53112;45.602;11.904;2023-02-27T11:49:06;16.70;24.50
62575;DHT22;53112;45.602;11.904;2023-02-27T11:51:53;16.90;24.90
62575;DHT22;53112;45.602;11.904;2023-02-27T11:54:41;16.60;25.70
62575;DHT22;53112;45.602;11.904;2023-02-27T11:57:24;16.50;25.20
62575;DHT22;53112;45.602;11.904;2023-02-27T12:00:19;15.80;24.40
62575;DHT22;53112;45.602;11.904;2023-02-27T12:05:39;15.70;26.30
62575;DHT22;53112;45.602;11.904;2023-02-27T12:11:02;15.40;27.40
62575;DHT22;53112;45.602;11.904;2023-02-27T12:13:35;15.30;26.90
62575;DHT22;53112;45.602;11.904;2023-02-27T12:16:16;15.30;26.70
62575;DHT22;53112;45.602;11.904;2023-02-27T12:19:50;15.10;28.20
62575;DHT22;53112;45.602;11.904;2023-02-27T12:21:46;15.10;27.30
62575;DHT22;53112;45.602;11.904;2023-02-27T12:24:24;15.10;27.30
62575;DHT22;53112;45.602;11.904;2023-02-27T12:27:00;15.10;27.10
62575;DHT22;53112;45.602;11.904;2023-02-27T12:29:40;15.10;28.30
62575;DHT22;53112;45.602;11.904;2023-02-27T12:32:19;15.30;27.60
62575;DHT22;53112;45.602;11.904;2023-02-27T12:34:55;15.10;27.60
62575;DHT22;53112;45.602;11.904;2023-02-27T12:37:30;14.70;27.20
62575;DHT22;53112;45.602;11.904;2023-02-27T12:40:02;14.80;28.20
62575;DHT22;53112;45.602;11.904;2023-02-27T12:54:03;13.80;29.40
62575;DHT22;53112;45.602;11.904;2023-02-27T12:59:52;13.70;29.40
62575;DHT22;53112;45.602;11.904;2023-02-27T13:10:50;13.60;28.90
62575;DHT22;53112;45.602;11.904;2023-02-27T13:13:37;13.60;30.40
62575;DHT22;53112;45.602;11.904;2023-02-27T13:16:27;13.50;29.80
62575;DHT22;53112;45.602;11.904;2023-02-27T13:26:43;13.10;29.30
62575;DHT22;53112;45.602;11.904;2023-02-27T13:29:16;13.00;30.10
62575;DHT22;53112;45.602;11.904;2023-02-27T13:34:33;13.70;31.10
62575;DHT22;53112;45.602;11.904;2023-02-27T13:37:02;13.40;29.90
62575;DHT22;53112;45.602;11.904;2023-02-27T13:44:53;13.50;31.20
62575;DHT22;53112;45.602;11.904;2023-02-27T13:50:04;13.20;31.30
62575;DHT22;53112;45.602;11.904;2023-02-27T13:52:48;13.30;29.70
62575;DHT22;53112;45.602;11.904;2023-02-27T13:55:35;13.40;30.90
62575;DHT22;53112;45.602;11.904;2023-02-27T13:58:03;13.40;30.50
62575;DHT22;53112;45.602;11.904;2023-02-27T14:00:33;13.10;31.10
62575;DHT22;53112;45.602;11.904;2023-02-27T14:06:04;13.20;30.20
62575;DHT22;53112;45.602;11.904;2023-02-27T14:08:47;13.10;31.40
62575;DHT22;53112;45.602;11.904;2023-02-27T14:11:21;13.30;31.60
62575;DHT22;53112;45.602;11.904;2023-02-27T14:22:01;13.90;30.00
62575;DHT22;53112;45.602;11.904;2023-02-27T14:24:30;14.30;31.00
62575;DHT22;53112;45.602;11.904;2023-02-27T14:26:58;14.60;30.00
62575;DHT22;53112;45.602;11.904;2023-02-27T14:29:28;14.60;30.00
62575;DHT22;53112;45.602;11.904;2023-02-27T14:32:00;15.10;28.80
62575;DHT22;53112;45.602;11.904;2023-02-27T14:34:27;15.20;27.80
62575;DHT22;53112;45.602;11.904;2023-02-27T14:36:59;15.40;28.60
62575;DHT22;53112;45.602;11.904;2023-02-27T14:39:34;15.40;28.90
62575;DHT22;53112;45.602;11.904;2023-02-27T14:44:46;14.80;29.40
62575;DHT22;53112;45.602;11.904;2023-02-27T14:47:24;14.60;28.80
62575;DHT22;53112;45.602;11.904;2023-02-27T14:49:51;14.20;30.30
62575;DHT22;53112;45.602;11.904;2023-02-27T14:52:20;13.70;32.10
62575;DHT22;53112;45.602;11.904;2023-02-27T14:54:48;13.70;30.80
62575;DHT22;53112;45.602;11.904;2023-02-27T14:57:18;13.70;31.20
62575;DHT22;53112;45.602;11.904;2023-02-27T14:59:49;13.60;31.40
62575;DHT22;53112;45.602;11.904;2023-02-27T15:02:24;13.60;32.20
62575;DHT22;53112;45.602;11.904;2023-02-27T15:07:32;13.20;32.40
62575;DHT22;53112;45.602;11.904;2023-02-27T15:10:04;13.20;32.70
62575;DHT22;53112;45.602;11.904;2023-02-27T15:12:31;13.20;31.90
62575;DHT22;53112;45.602;11.904;2023-02-27T15:15:02;13.20;31.90
62575;DHT22;53112;45.602;11.904;2023-02-27T15:17:41;13.10;32.00
62575;DHT22;53112;45.602;11.904;2023-02-27T15:22:52;13.20;31.80
62575;DHT22;53112;45.602;11.904;2023-02-27T15:25:39;13.00;32.50
62575;DHT22;53112;45.602;11.904;2023-02-27T15:28:14;13.10;33.30
62575;DHT22;53112;45.602;11.904;2023-02-27T15:30:48;13.00;32.50
62575;DHT22;53112;45.602;11.904;2023-02-27T15:33:14;12.80;33.70
62575;DHT22;53112;45.602;11.904;2023-02-27T15:35:43;12.70;33.30
62575;DHT22;53112;45.602;11.904;2023-02-27T15:38:29;12.70;33.70
62575;DHT22;53112;45.602;11.904;2023-02-27T15:40:56;12.60;33.90
62575;DHT22;53112;45.602;11.904;2023-02-27T15:43:24;12.10;33.50
62575;DHT22;53112;45.602;11.904;2023-02-27T15:45:51;12.10;34.30
62575;DHT22;53112;45.602;11.904;2023-02-27T15:48:18;12.00;33.70
62575;DHT22;53112;45.602;11.904;2023-02-27T15:50:52;12.00;34.10
62575;DHT22;53112;45.602;11.904;2023-02-27T15:53:22;12.10;34.70
62575;DHT22;53112;45.602;11.904;2023-02-27T15:55:54;12.00;34.50
62575;DHT22;53112;45.602;11.904;2023-02-27T15:58:28;11.80;34.80
62575;DHT22;53112;45.602;11.904;2023-02-27T16:01:06;11.80;34.70
62575;DHT22;53112;45.602;11.904;2023-02-27T16:03:37;11.70;35.00
62575;DHT22;53112;45.602;11.904;2023-02-27T16:06:33;11.70;35.40
62575;DHT22;53112;45.602;11.904;2023-02-27T16:09:04;11.70;35.60
62575;DHT22;53112;45.602;11.904;2023-02-27T16:11:33;11.60;35.40
62575;DHT22;53112;45.602;11.904;2023-02-27T16:14:00;11.50;35.40
62575;DHT22;53112;45.602;11.904;2023-02-27T16:16:28;11.40;35.20
62575;DHT22;53112;45.602;11.904;2023-02-27T16:18:58;11.40;36.10
62575;DHT22;53112;45.602;11.904;2023-02-27T16:21:26;11.60;36.10
62575;DHT22;53112;45.602;11.904;2023-02-27T16:23:53;11.40;35.80
62575;DHT22;53112;45.602;11.904;2023-02-27T16:26:29;11.20;36.20
62575;DHT22;53112;45.602;11.904;2023-02-27T16:29:01;11.20;35.50
62575;DHT22;53112;45.602;11.904;2023-02-27T16:33:58;11.20;36.40
62575;DHT22;53112;45.602;11.904;2023-02-27T16:36:27;11.20;36.90
62575;DHT22;53112;45.602;11.904;2023-02-27T16:38:54;11.20;36.60
62575;DHT22;53112;45.602;11.904;2023-02-27T16:41:21;11.20;36.60
62575;DHT22;53112;45.602;11.904;2023-02-27T16:43:48;11.10;36.60
62575;DHT22;53112;45.602;11.904;2023-02-27T16:46:16;11.10;37.20
62575;DHT22;53112;45.602;11.904;2023-02-27T16:48:56;11.10;36.90
62575;DHT22;53112;45.602;11.904;2023-02-27T16:51:27;11.20;37.10
62575;DHT22;53112;45.602;11.904;2023-02-27T16:53:54;11.20;37.60
62575;DHT22;53112;45.602;11.904;2023-02-27T16:56:22;11.00;37.50
62575;DHT22;53112;45.602;11.904;2023-02-27T16:58:49;11.10;37.90
62575;DHT22;53112;45.602;11.904;2023-02-27T17:01:15;11.10;38.20
62575;DHT22;53112;45.602;11.904;2023-02-27T17:03:42;10.90;37.70
62575;DHT22;53112;45.602;11.904;2023-02-27T17:06:10;10.70;38.10
62575;DHT22;53112;45.602;11.904;2023-02-27T17:08:38;10.60;38.40
62575;DHT22;53112;45.602;11.904;2023-02-27T17:11:05;10.70;38.30
62575;DHT22;53112;45.602;11.904;2023-02-27T17:13:32;10.70;38.60
62575;DHT22;53112;45.602;11.904;2023-02-27T17:15:59;10.60;38.90
62575;DHT22;53112;45.602;11.904;2023-02-27T17:18:25;10.40;38.90
62575;DHT22;53112;45.602;11.904;2023-02-27T17:20:52;10.30;38.00
62575;DHT22;53112;45.602;11.904;2023-02-27T17:23:18;10.40;39.40
62575;DHT22;53112;45.602;11.904;2023-02-27T17:25:44;10.00;39.60
62575;DHT22;53112;45.602;11.904;2023-02-27T17:28:11;9.80;40.10
62575;DHT22;53112;45.602;11.904;2023-02-27T17:30:37;9.70;40.40
62575;DHT22;53112;45.602;11.904;2023-02-27T17:33:04;9.60;41.00
62575;DHT22;53112;45.602;11.904;2023-02-27T17:35:30;9.70;41.20
62575;DHT22;53112;45.602;11.904;2023-02-27T17:37:57;9.60;41.50
62575;DHT22;53112;45.602;11.904;2023-02-27T17:40:24;9.40;39.80
62575;DHT22;53112;45.602;11.904;2023-02-27T17:42:50;9.50;40.80
62575;DHT22;53112;45.602;11.904;2023-02-27T17:45:16;9.20;40.70
62575;DHT22;53112;45.602;11.904;2023-02-27T17:47:46;9.20;40.50
62575;DHT22;53112;45.602;11.904;2023-02-27T17:50:13;9.20;41.20
62575;DHT22;53112;45.602;11.904;2023-02-27T17:52:39;8.90;41.50
62575;DHT22;53112;45.602;11.904;2023-02-27T17:55:05;9.00;41.20
62575;DHT22;53112;45.602;11.904;2023-02-27T17:57:37;9.00;41.50
62575;DHT22;53112;45.602;11.904;2023-02-27T18:00:05;8.90;41.70
62575;DHT22;53112;45.602;11.904;2023-02-27T18:02:34;8.70;41.90
62575;DHT22;53112;45.602;11.904;2023-02-27T18:05:01;8.70;42.20
62575;DHT22;53112;45.602;11.904;2023-02-27T18:07:29;8.60;41.90
62575;DHT22;53112;45.602;11.904;2023-02-27T18:09:55;8.60;42.30
62575;DHT22;53112;45.602;11.904;2023-02-27T18:12:21;8.50;42.50
62575;DHT22;53112;45.602;11.904;2023-02-27T18:14:47;8.40;42.50
62575;DHT22;53112;45.602;11.904;2023-02-27T18:17:13;8.40;42.90
62575;DHT22;53112;45.602;11.904;2023-02-27T18:19:40;8.40;42.40
62575;DHT22;53112;45.602;11.904;2023-02-27T18:22:08;8.30;42.90
62575;DHT22;53112;45.602;11.904;2023-02-27T18:24:34;8.20;43.50
62575;DHT22;53112;45.602;11.904;2023-02-27T18:27:00;8.10;43.10
62575;DHT22;53112;45.602;11.904;2023-02-27T18:29:26;8.10;43.10
62575;DHT22;53112;45.602;11.904;2023-02-27T18:31:52;8.00;43.90
62575;DHT22;53112;45.602;11.904;2023-02-27T18:34:20;7.90;43.40
62575;DHT22;53112;45.602;11.904;2023-02-27T18:36:47;7.90;44.00
62575;DHT22;53112;45.602;11.904;2023-02-27T18:39:13;7.90;43.90
62575;DHT22;53112;45.602;11.904;2023-02-27T18:41:39;7.90;44.00
62575;DHT22;53112;45.602;11.904;2023-02-27T18:44:05;7.90;43.60
62575;DHT22;53112;45.602;11.904;2023-02-27T18:46:32;7.90;44.10